sensor_id;sensor_type;location;lat;lon;timestamp;P1;durP1;ratioP1;P2;durP2;ratioP2
57401;SDS011;43226;51.110;6.998;2023-05-10T00:01:58;8.83;;;5.03;;
57401;SDS011;43226;51.110;6.998;2023-05-10T00:04:24;8.20;;;5.67;;
57401;SDS011;43226;51.110;6.998;2023-05-10T00:06:52;6.03;;;4.40;;
57401;SDS011;43226;51.110;6.998;2023-05-10T00:09:17;9.00;;;5.60;;
57401;SDS011;43226;51.110;6.998;2023-05-10T00:11:42;8.37;;;5.33;;
57401;SDS011;43226;51.110;6.998;2023-05-10T00:14:07;7.87;;;5.13;;
57401;SDS011;43226;51.110;6.998;2023-05-10T00:16:33;10.60;;;6.33;;
57401;SDS011;43226;51.110;6.998;2023-05-10T00:18:58;10.97;;;6.50;;
57401;SDS011;43226;51.110;6.998;2023-05-10T00:21:23;11.27;;;6.40;;
57401;SDS011;43226;51.110;6.998;2023-05-10T00:23:48;9.40;;;5.63;;
57401;SDS011;43226;51.110;6.998;2023-05-10T00:26:13;9.57;;;5.63;;
57401;SDS011;43226;51.110;6.998;2023-05-10T00:28:39;11.90;;;6.53;;
57401;SDS011;43226;51.110;6.998;2023-05-10T00:31:05;14.87;;;6.73;;
57401;SDS011;43226;51.110;6.998;2023-05-10T00:33:30;9.30;;;6.00;;
57401;SDS011;43226;51.110;6.998;2023-05-10T00:35:55;12.73;;;6.10;;
57401;SDS011;43226;51.110;6.998;2023-05-10T00:38:20;9.50;;;5.60;;
57401;SDS011;43226;51.110;6.998;2023-05-10T00:40:46;11.23;;;6.13;;
57401;SDS011;43226;51.110;6.998;2023-05-10T00:43:11;11.43;;;6.80;;
57401;SDS011;43226;51.110;6.998;2023-05-10T00:45:36;11.80;;;6.67;;
57401;SDS011;43226;51.110;6.998;2023-05-10T00:48:02;15.47;;;7.27;;
57401;SDS011;43226;51.110;6.998;2023-05-10T00:50:28;10.20;;;6.60;;
57401;SDS011;43226;51.110;6.998;2023-05-10T00:52:54;13.87;;;6.70;;
57401;SDS011;43226;51.110;6.998;2023-05-10T00:55:19;11.40;;;6.80;;
57401;SDS011;43226;51.110;6.998;2023-05-10T00:57:44;12.73;;;7.23;;
57401;SDS011;43226;51.110;6.998;2023-05-10T01:00:10;10.23;;;6.27;;
57401;SDS011;43226;51.110;6.998;2023-05-10T01:02:36;12.30;;;7.00;;
57401;SDS011;43226;51.110;6.998;2023-05-10T01:05:02;13.00;;;6.57;;
57401;SDS011;43226;51.110;6.998;2023-05-10T01:07:28;10.63;;;6.93;;
57401;SDS011;43226;51.110;6.998;2023-05-10T01:09:53;12.63;;;6.80;;
57401;SDS011;43226;51.110;6.998;2023-05-10T01:12:18;12.93;;;7.20;;
57401;SDS011;43226;51.110;6.998;2023-05-10T01:14:44;12.27;;;6.50;;
57401;SDS011;43226;51.110;6.998;2023-05-10T01:17:09;14.73;;;7.40;;
57401;SDS011;43226;51.110;6.998;2023-05-10T01:19:35;10.47;;;6.77;;
57401;SDS011;43226;51.110;6.998;2023-05-10T01:32:57;14.50;;;6.63;;
57401;SDS011;43226;51.110;6.998;2023-05-10T01:35:26;12.00;;;6.63;;
57401;SDS011;43226;51.110;6.998;2023-05-10T01:43:22;11.13;;;5.73;;
57401;SDS011;43226;51.110;6.998;2023-05-10T01:46:02;9.83;;;6.70;;
57401;SDS011;43226;51.110;6.998;2023-05-10T01:48:35;9.50;;;5.33;;
57401;SDS011;43226;51.110;6.998;2023-05-10T01:51:00;11.73;;;6.70;;
57401;SDS011;43226;51.110;6.998;2023-05-10T01:53:26;11.20;;;6.40;;
57401;SDS011;43226;51.110;6.998;2023-05-10T01:55:52;10.47;;;6.37;;
57401;SDS011;43226;51.110;6.998;2023-05-10T01:58:20;10.93;;;6.50;;
57401;SDS011;43226;51.110;6.998;2023-05-10T02:00:46;7.23;;;5.30;;
57401;SDS011;43226;51.110;6.998;2023-05-10T02:03:12;8.67;;;4.80;;
57401;SDS011;43226;51.110;6.998;2023-05-10T02:05:38;7.50;;;4.53;;
57401;SDS011;43226;51.110;6.998;2023-05-10T02:08:05;8.37;;;5.10;;
57401;SDS011;43226;51.110;6.998;2023-05-10T02:10:31;6.20;;;4.00;;
57401;SDS011;43226;51.110;6.998;2023-05-10T02:12:58;8.67;;;4.20;;
57401;SDS011;43226;51.110;6.998;2023-05-10T02:15:23;6.93;;;4.30;;
57401;SDS011;43226;51.110;6.998;2023-05-10T02:17:49;5.93;;;4.27;;
57401;SDS011;43226;51.110;6.998;2023-05-10T02:20:15;6.33;;;3.90;;
57401;SDS011;43226;51.110;6.998;2023-05-10T02:22:41;8.47;;;4.47;;
57401;SDS011;43226;51.110;6.998;2023-05-10T02:25:08;6.00;;;4.23;;
57401;SDS011;43226;51.110;6.998;2023-05-10T02:27:34;8.47;;;4.90;;
57401;SDS011;43226;51.110;6.998;2023-05-10T02:29:59;7.43;;;4.50;;
57401;SDS011;43226;51.110;6.998;2023-05-10T02:32:25;6.80;;;4.07;;
57401;SDS011;43226;51.110;6.998;2023-05-10T02:34:51;5.37;;;4.27;;
57401;SDS011;43226;51.110;6.998;2023-05-10T02:37:18;6.30;;;4.10;;
57401;SDS011;43226;51.110;6.998;2023-05-10T02:39:45;7.90;;;4.27;;
57401;SDS011;43226;51.110;6.998;2023-05-10T02:42:12;11.73;;;5.60;;
57401;SDS011;43226;51.110;6.998;2023-05-10T02:44:38;6.23;;;4.83;;
57401;SDS011;43226;51.110;6.998;2023-05-10T02:47:05;6.90;;;4.57;;
57401;SDS011;43226;51.110;6.998;2023-05-10T02:49:31;8.90;;;5.33;;
57401;SDS011;43226;51.110;6.998;2023-05-10T02:51:56;7.70;;;5.23;;
57401;SDS011;43226;51.110;6.998;2023-05-10T02:54:27;8.30;;;4.13;;
57401;SDS011;43226;51.110;6.998;2023-05-10T02:56:55;8.30;;;5.63;;
57401;SDS011;43226;51.110;6.998;2023-05-10T02:59:21;8.60;;;4.97;;
57401;SDS011;43226;51.110;6.998;2023-05-10T03:01:46;6.93;;;4.70;;
57401;SDS011;43226;51.110;6.998;2023-05-10T03:04:11;7.87;;;4.97;;
57401;SDS011;43226;51.110;6.998;2023-05-10T03:06:37;9.40;;;4.93;;
57401;SDS011;43226;51.110;6.998;2023-05-10T03:09:02;13.43;;;5.80;;
57401;SDS011;43226;51.110;6.998;2023-05-10T03:16:35;11.13;;;5.70;;
57401;SDS011;43226;51.110;6.998;2023-05-10T03:21:29;8.18;;;5.07;;
57401;SDS011;43226;51.110;6.998;2023-05-10T03:24:07;12.90;;;5.20;;
57401;SDS011;43226;51.110;6.998;2023-05-10T03:26:33;7.80;;;4.90;;
57401;SDS011;43226;51.110;6.998;2023-05-10T03:28:59;9.13;;;5.83;;
57401;SDS011;43226;51.110;6.998;2023-05-10T03:31:25;9.37;;;5.30;;
57401;SDS011;43226;51.110;6.998;2023-05-10T03:33:51;10.70;;;6.10;;
57401;SDS011;43226;51.110;6.998;2023-05-10T03:36:16;10.73;;;5.97;;
57401;SDS011;43226;51.110;6.998;2023-05-10T03:38:41;10.33;;;6.90;;
57401;SDS011;43226;51.110;6.998;2023-05-10T03:41:07;11.70;;;6.43;;
57401;SDS011;43226;51.110;6.998;2023-05-10T03:43:32;12.10;;;5.97;;
57401;SDS011;43226;51.110;6.998;2023-05-10T03:45:57;6.93;;;4.03;;
57401;SDS011;43226;51.110;6.998;2023-05-10T03:48:22;10.60;;;6.27;;
57401;SDS011;43226;51.110;6.998;2023-05-10T03:50:47;7.70;;;5.70;;
57401;SDS011;43226;51.110;6.998;2023-05-10T03:53:14;8.53;;;4.57;;
57401;SDS011;43226;51.110;6.998;2023-05-10T03:55:39;9.60;;;5.37;;
57401;SDS011;43226;51.110;6.998;2023-05-10T03:58:04;9.50;;;5.50;;
57401;SDS011;43226;51.110;6.998;2023-05-10T04:00:29;7.23;;;4.30;;
57401;SDS011;43226;51.110;6.998;2023-05-10T04:02:55;7.93;;;4.80;;
57401;SDS011;43226;51.110;6.998;2023-05-10T04:05:21;10.07;;;4.80;;
57401;SDS011;43226;51.110;6.998;2023-05-10T04:07:46;9.33;;;4.67;;
57401;SDS011;43226;51.110;6.998;2023-05-10T04:10:12;7.00;;;4.37;;
57401;SDS011;43226;51.110;6.998;2023-05-10T04:12:37;9.27;;;6.20;;
57401;SDS011;43226;51.110;6.998;2023-05-10T04:15:02;9.97;;;4.67;;
57401;SDS011;43226;51.110;6.998;2023-05-10T04:17:28;8.10;;;5.47;;
57401;SDS011;43226;51.110;6.998;2023-05-10T04:19:53;8.20;;;5.73;;
57401;SDS011;43226;51.110;6.998;2023-05-10T04:22:19;8.30;;;4.83;;
57401;SDS011;43226;51.110;6.998;2023-05-10T04:24:44;9.13;;;5.47;;
57401;SDS011;43226;51.110;6.998;2023-05-10T04:27:10;11.70;;;5.57;;
57401;SDS011;43226;51.110;6.998;2023-05-10T04:29:36;8.03;;;4.87;;
57401;SDS011;43226;51.110;6.998;2023-05-10T04:32:01;10.77;;;6.43;;
57401;SDS011;43226;51.110;6.998;2023-05-10T04:34:27;8.33;;;5.97;;
57401;SDS011;43226;51.110;6.998;2023-05-10T04:36:52;7.30;;;5.17;;
57401;SDS011;43226;51.110;6.998;2023-05-10T04:39:17;8.13;;;5.87;;
57401;SDS011;43226;51.110;6.998;2023-05-10T04:41:43;8.97;;;5.37;;
57401;SDS011;43226;51.110;6.998;2023-05-10T04:44:08;9.70;;;5.67;;
57401;SDS011;43226;51.110;6.998;2023-05-10T04:46:33;9.93;;;5.83;;
57401;SDS011;43226;51.110;6.998;2023-05-10T04:49:04;9.30;;;6.20;;
57401;SDS011;43226;51.110;6.998;2023-05-10T04:51:29;10.10;;;5.93;;
57401;SDS011;43226;51.110;6.998;2023-05-10T04:53:54;12.47;;;6.63;;
57401;SDS011;43226;51.110;6.998;2023-05-10T04:56:19;11.73;;;6.40;;
57401;SDS011;43226;51.110;6.998;2023-05-10T04:58:45;11.93;;;6.20;;
57401;SDS011;43226;51.110;6.998;2023-05-10T05:01:10;12.40;;;6.40;;
57401;SDS011;43226;51.110;6.998;2023-05-10T05:03:36;11.63;;;7.00;;
57401;SDS011;43226;51.110;6.998;2023-05-10T05:06:01;13.10;;;6.30;;
57401;SDS011;43226;51.110;6.998;2023-05-10T05:08:27;15.77;;;7.60;;
57401;SDS011;43226;51.110;6.998;2023-05-10T05:10:52;11.83;;;6.70;;
57401;SDS011;43226;51.110;6.998;2023-05-10T05:13:17;11.37;;;7.20;;
57401;SDS011;43226;51.110;6.998;2023-05-10T05:15:43;16.27;;;10.47;;
57401;SDS011;43226;51.110;6.998;2023-05-10T05:18:08;14.43;;;8.90;;
57401;SDS011;43226;51.110;6.998;2023-05-10T05:20:33;12.00;;;7.20;;
57401;SDS011;43226;51.110;6.998;2023-05-10T05:22:59;19.93;;;9.37;;
57401;SDS011;43226;51.110;6.998;2023-05-10T05:25:24;16.03;;;7.50;;
57401;SDS011;43226;51.110;6.998;2023-05-10T05:27:49;16.43;;;8.20;;
57401;SDS011;43226;51.110;6.998;2023-05-10T05:30:15;13.20;;;6.87;;
57401;SDS011;43226;51.110;6.998;2023-05-10T05:32:40;21.87;;;7.77;;
57401;SDS011;43226;51.110;6.998;2023-05-10T05:35:05;16.87;;;8.30;;
57401;SDS011;43226;51.110;6.998;2023-05-10T05:37:31;17.20;;;9.13;;
57401;SDS011;43226;51.110;6.998;2023-05-10T05:39:56;14.50;;;8.13;;
57401;SDS011;43226;51.110;6.998;2023-05-10T05:42:21;15.37;;;8.87;;
57401;SDS011;43226;51.110;6.998;2023-05-10T05:44:47;13.53;;;8.20;;
57401;SDS011;43226;51.110;6.998;2023-05-10T05:47:12;14.05;;;7.75;;
57401;SDS011;43226;51.110;6.998;2023-05-10T05:49:37;11.30;;;7.13;;
57401;SDS011;43226;51.110;6.998;2023-05-10T05:52:03;12.50;;;6.87;;
57401;SDS011;43226;51.110;6.998;2023-05-10T05:54:28;12.50;;;7.30;;
57401;SDS011;43226;51.110;6.998;2023-05-10T05:57:00;13.50;;;7.47;;
57401;SDS011;43226;51.110;6.998;2023-05-10T05:59:25;11.60;;;6.43;;
57401;SDS011;43226;51.110;6.998;2023-05-10T06:01:51;9.23;;;6.10;;
57401;SDS011;43226;51.110;6.998;2023-05-10T06:04:16;9.50;;;5.80;;
57401;SDS011;43226;51.110;6.998;2023-05-10T06:06:41;9.03;;;6.03;;
57401;SDS011;43226;51.110;6.998;2023-05-10T06:09:07;13.10;;;7.13;;
57401;SDS011;43226;51.110;6.998;2023-05-10T06:11:32;9.87;;;7.10;;
57401;SDS011;43226;51.110;6.998;2023-05-10T06:13:58;12.68;;;7.35;;
57401;SDS011;43226;51.110;6.998;2023-05-10T06:16:23;10.03;;;5.87;;
57401;SDS011;43226;51.110;6.998;2023-05-10T06:18:48;11.57;;;5.63;;
57401;SDS011;43226;51.110;6.998;2023-05-10T06:21:13;14.37;;;6.67;;
57401;SDS011;43226;51.110;6.998;2023-05-10T06:23:39;12.00;;;7.10;;
57401;SDS011;43226;51.110;6.998;2023-05-10T06:26:05;10.13;;;7.30;;
57401;SDS011;43226;51.110;6.998;2023-05-10T06:28:30;12.30;;;6.80;;
57401;SDS011;43226;51.110;6.998;2023-05-10T06:30:57;17.00;;;7.30;;
57401;SDS011;43226;51.110;6.998;2023-05-10T06:33:22;10.57;;;6.60;;
57401;SDS011;43226;51.110;6.998;2023-05-10T06:35:47;15.07;;;8.53;;
57401;SDS011;43226;51.110;6.998;2023-05-10T06:38:12;10.43;;;5.90;;
57401;SDS011;43226;51.110;6.998;2023-05-10T06:40:40;15.43;;;7.63;;
57401;SDS011;43226;51.110;6.998;2023-05-10T06:43:05;12.93;;;7.50;;
57401;SDS011;43226;51.110;6.998;2023-05-10T06:45:31;11.73;;;6.67;;
57401;SDS011;43226;51.110;6.998;2023-05-10T06:47:56;15.40;;;7.27;;
57401;SDS011;43226;51.110;6.998;2023-05-10T06:50:25;15.07;;;7.20;;
57401;SDS011;43226;51.110;6.998;2023-05-10T06:52:50;13.47;;;7.20;;
57401;SDS011;43226;51.110;6.998;2023-05-10T06:55:15;14.03;;;7.57;;
57401;SDS011;43226;51.110;6.998;2023-05-10T06:57:40;15.77;;;8.27;;
57401;SDS011;43226;51.110;6.998;2023-05-10T07:00:06;18.33;;;8.53;;
57401;SDS011;43226;51.110;6.998;2023-05-10T07:02:31;16.53;;;8.83;;
57401;SDS011;43226;51.110;6.998;2023-05-10T07:04:57;14.93;;;7.97;;
57401;SDS011;43226;51.110;6.998;2023-05-10T07:07:22;13.47;;;7.70;;
57401;SDS011;43226;51.110;6.998;2023-05-10T07:09:47;17.57;;;9.37;;
57401;SDS011;43226;51.110;6.998;2023-05-10T07:12:13;17.40;;;8.87;;
57401;SDS011;43226;51.110;6.998;2023-05-10T07:14:39;14.90;;;8.63;;
57401;SDS011;43226;51.110;6.998;2023-05-10T07:17:04;13.10;;;8.13;;
57401;SDS011;43226;51.110;6.998;2023-05-10T07:19:30;19.87;;;8.37;;
57401;SDS011;43226;51.110;6.998;2023-05-10T07:21:57;19.43;;;8.20;;
57401;SDS011;43226;51.110;6.998;2023-05-10T07:24:22;12.77;;;7.90;;
57401;SDS011;43226;51.110;6.998;2023-05-10T07:26:48;12.77;;;8.20;;
57401;SDS011;43226;51.110;6.998;2023-05-10T07:29:13;14.13;;;8.00;;
57401;SDS011;43226;51.110;6.998;2023-05-10T07:31:38;11.53;;;7.13;;
57401;SDS011;43226;51.110;6.998;2023-05-10T07:34:03;14.47;;;7.70;;
57401;SDS011;43226;51.110;6.998;2023-05-10T07:36:29;16.87;;;7.40;;
57401;SDS011;43226;51.110;6.998;2023-05-10T07:38:54;17.37;;;7.47;;
57401;SDS011;43226;51.110;6.998;2023-05-10T07:41:19;13.00;;;6.80;;
57401;SDS011;43226;51.110;6.998;2023-05-10T07:43:46;11.57;;;6.57;;
57401;SDS011;43226;51.110;6.998;2023-05-10T07:46:11;11.90;;;7.33;;
57401;SDS011;43226;51.110;6.998;2023-05-10T07:48:36;13.40;;;6.83;;
57401;SDS011;43226;51.110;6.998;2023-05-10T07:51:02;15.60;;;7.10;;
57401;SDS011;43226;51.110;6.998;2023-05-10T07:53:27;10.83;;;6.60;;
57401;SDS011;43226;51.110;6.998;2023-05-10T07:55:54;15.00;;;7.50;;
57401;SDS011;43226;51.110;6.998;2023-05-10T07:58:21;13.33;;;7.83;;
57401;SDS011;43226;51.110;6.998;2023-05-10T08:00:47;12.27;;;7.03;;
57401;SDS011;43226;51.110;6.998;2023-05-10T08:03:13;15.93;;;8.43;;
57401;SDS011;43226;51.110;6.998;2023-05-10T08:05:38;12.17;;;7.40;;
57401;SDS011;43226;51.110;6.998;2023-05-10T08:08:03;13.60;;;7.30;;
57401;SDS011;43226;51.110;6.998;2023-05-10T08:10:29;16.53;;;6.90;;
57401;SDS011;43226;51.110;6.998;2023-05-10T08:12:54;10.50;;;7.80;;
57401;SDS011;43226;51.110;6.998;2023-05-10T08:15:19;15.43;;;7.83;;
57401;SDS011;43226;51.110;6.998;2023-05-10T08:17:45;14.30;;;7.40;;
57401;SDS011;43226;51.110;6.998;2023-05-10T08:20:10;18.47;;;7.77;;
57401;SDS011;43226;51.110;6.998;2023-05-10T08:22:37;11.80;;;7.30;;
57401;SDS011;43226;51.110;6.998;2023-05-10T08:25:03;15.13;;;7.90;;
57401;SDS011;43226;51.110;6.998;2023-05-10T08:27:28;11.97;;;6.73;;
57401;SDS011;43226;51.110;6.998;2023-05-10T08:29:53;18.67;;;7.93;;
57401;SDS011;43226;51.110;6.998;2023-05-10T08:32:18;13.53;;;8.47;;
57401;SDS011;43226;51.110;6.998;2023-05-10T08:34:43;15.67;;;8.90;;
57401;SDS011;43226;51.110;6.998;2023-05-10T08:37:08;11.80;;;6.97;;
57401;SDS011;43226;51.110;6.998;2023-05-10T08:39:35;14.13;;;6.93;;
57401;SDS011;43226;51.110;6.998;2023-05-10T08:42:01;12.93;;;7.83;;
57401;SDS011;43226;51.110;6.998;2023-05-10T08:44:26;12.37;;;7.00;;
57401;SDS011;43226;51.110;6.998;2023-05-10T08:46:52;12.03;;;6.87;;
57401;SDS011;43226;51.110;6.998;2023-05-10T08:49:18;15.10;;;6.87;;
57401;SDS011;43226;51.110;6.998;2023-05-10T08:51:47;9.80;;;6.63;;
57401;SDS011;43226;51.110;6.998;2023-05-10T08:54:14;10.97;;;6.73;;
57401;SDS011;43226;51.110;6.998;2023-05-10T08:56:39;14.57;;;7.70;;
57401;SDS011;43226;51.110;6.998;2023-05-10T08:59:05;15.93;;;8.20;;
57401;SDS011;43226;51.110;6.998;2023-05-10T09:01:31;15.63;;;9.77;;
57401;SDS011;43226;51.110;6.998;2023-05-10T09:03:56;26.90;;;11.27;;
57401;SDS011;43226;51.110;6.998;2023-05-10T09:06:22;20.90;;;10.03;;
57401;SDS011;43226;51.110;6.998;2023-05-10T09:08:48;17.90;;;9.97;;
57401;SDS011;43226;51.110;6.998;2023-05-10T09:11:13;18.87;;;9.27;;
57401;SDS011;43226;51.110;6.998;2023-05-10T09:13:39;15.23;;;8.37;;
57401;SDS011;43226;51.110;6.998;2023-05-10T09:16:04;17.70;;;10.87;;
57401;SDS011;43226;51.110;6.998;2023-05-10T09:18:29;15.93;;;8.80;;
57401;SDS011;43226;51.110;6.998;2023-05-10T09:20:55;19.00;;;9.97;;
57401;SDS011;43226;51.110;6.998;2023-05-10T09:23:20;20.53;;;11.10;;
57401;SDS011;43226;51.110;6.998;2023-05-10T09:25:46;24.30;;;12.30;;
57401;SDS011;43226;51.110;6.998;2023-05-10T09:28:11;25.00;;;10.90;;
57401;SDS011;43226;51.110;6.998;2023-05-10T09:30:37;18.77;;;10.43;;
57401;SDS011;43226;51.110;6.998;2023-05-10T09:33:02;15.97;;;9.20;;
57401;SDS011;43226;51.110;6.998;2023-05-10T09:35:28;21.93;;;10.70;;
57401;SDS011;43226;51.110;6.998;2023-05-10T09:37:55;19.87;;;10.40;;
57401;SDS011;43226;51.110;6.998;2023-05-10T09:40:21;24.77;;;9.90;;
57401;SDS011;43226;51.110;6.998;2023-05-10T09:43:29;20.40;;;10.47;;
57401;SDS011;43226;51.110;6.998;2023-05-10T09:45:35;21.57;;;11.33;;
57401;SDS011;43226;51.110;6.998;2023-05-10T09:48:01;24.03;;;11.73;;
57401;SDS011;43226;51.110;6.998;2023-05-10T09:50:27;22.77;;;10.90;;
57401;SDS011;43226;51.110;6.998;2023-05-10T09:52:56;18.83;;;9.80;;
57401;SDS011;43226;51.110;6.998;2023-05-10T09:58:02;23.50;;;11.30;;
57401;SDS011;43226;51.110;6.998;2023-05-10T10:00:27;30.00;;;12.50;;
57401;SDS011;43226;51.110;6.998;2023-05-10T10:02:57;21.23;;;11.60;;
57401;SDS011;43226;51.110;6.998;2023-05-10T10:05:44;25.43;;;11.93;;
57401;SDS011;43226;51.110;6.998;2023-05-10T10:08:08;25.63;;;14.03;;
57401;SDS011;43226;51.110;6.998;2023-05-10T10:10:34;22.80;;;11.50;;
57401;SDS011;43226;51.110;6.998;2023-05-10T10:12:59;28.80;;;12.17;;
57401;SDS011;43226;51.110;6.998;2023-05-10T10:15:25;28.50;;;13.57;;
57401;SDS011;43226;51.110;6.998;2023-05-10T10:17:51;22.03;;;12.13;;
57401;SDS011;43226;51.110;6.998;2023-05-10T10:20:16;27.50;;;12.07;;
57401;SDS011;43226;51.110;6.998;2023-05-10T10:22:41;22.20;;;10.70;;
57401;SDS011;43226;51.110;6.998;2023-05-10T10:25:08;20.93;;;10.77;;
57401;SDS011;43226;51.110;6.998;2023-05-10T10:30:11;23.60;;;11.63;;
57401;SDS011;43226;51.110;6.998;2023-05-10T10:35:22;21.63;;;10.10;;
57401;SDS011;43226;51.110;6.998;2023-05-10T10:37:47;21.00;;;10.77;;
57401;SDS011;43226;51.110;6.998;2023-05-10T10:40:28;21.53;;;10.50;;
57401;SDS011;43226;51.110;6.998;2023-05-10T10:42:54;27.03;;;11.87;;
57401;SDS011;43226;51.110;6.998;2023-05-10T10:45:20;22.93;;;12.23;;
57401;SDS011;43226;51.110;6.998;2023-05-10T10:47:46;19.33;;;10.93;;
57401;SDS011;43226;51.110;6.998;2023-05-10T10:50:11;24.57;;;17.03;;
57401;SDS011;43226;51.110;6.998;2023-05-10T10:52:43;19.47;;;10.13;;
57401;SDS011;43226;51.110;6.998;2023-05-10T10:55:19;17.80;;;9.20;;
57401;SDS011;43226;51.110;6.998;2023-05-10T11:00:28;19.10;;;10.80;;
57401;SDS011;43226;51.110;6.998;2023-05-10T11:08:00;15.37;;;9.90;;
57401;SDS011;43226;51.110;6.998;2023-05-10T11:10:31;16.30;;;7.80;;
57401;SDS011;43226;51.110;6.998;2023-05-10T11:13:00;18.53;;;8.93;;
57401;SDS011;43226;51.110;6.998;2023-05-10T11:15:32;13.43;;;9.03;;
57401;SDS011;43226;51.110;6.998;2023-05-10T11:17:57;14.70;;;8.70;;
57401;SDS011;43226;51.110;6.998;2023-05-10T11:20:22;17.40;;;9.20;;
57401;SDS011;43226;51.110;6.998;2023-05-10T11:22:50;16.87;;;9.20;;
57401;SDS011;43226;51.110;6.998;2023-05-10T11:25:16;14.37;;;8.17;;
57401;SDS011;43226;51.110;6.998;2023-05-10T11:27:41;13.77;;;7.83;;
57401;SDS011;43226;51.110;6.998;2023-05-10T11:30:07;14.23;;;7.57;;
57401;SDS011;43226;51.110;6.998;2023-05-10T11:32:32;15.53;;;9.00;;
57401;SDS011;43226;51.110;6.998;2023-05-10T11:34:58;18.30;;;8.70;;
57401;SDS011;43226;51.110;6.998;2023-05-10T11:37:23;14.52;;;7.60;;
57401;SDS011;43226;51.110;6.998;2023-05-10T11:39:48;11.43;;;6.83;;
57401;SDS011;43226;51.110;6.998;2023-05-10T11:42:13;13.77;;;7.27;;
57401;SDS011;43226;51.110;6.998;2023-05-10T11:44:38;13.40;;;7.77;;
57401;SDS011;43226;51.110;6.998;2023-05-10T11:47:04;13.40;;;7.67;;
57401;SDS011;43226;51.110;6.998;2023-05-10T11:49:30;12.43;;;7.13;;
57401;SDS011;43226;51.110;6.998;2023-05-10T11:52:07;13.07;;;7.37;;
57401;SDS011;43226;51.110;6.998;2023-05-10T11:54:33;11.47;;;6.80;;
57401;SDS011;43226;51.110;6.998;2023-05-10T11:56:59;11.20;;;7.13;;
57401;SDS011;43226;51.110;6.998;2023-05-10T11:59:25;10.00;;;6.17;;
57401;SDS011;43226;51.110;6.998;2023-05-10T12:01:50;11.63;;;7.17;;
57401;SDS011;43226;51.110;6.998;2023-05-10T12:04:15;19.20;;;7.67;;
57401;SDS011;43226;51.110;6.998;2023-05-10T12:06:41;11.03;;;6.27;;
57401;SDS011;43226;51.110;6.998;2023-05-10T12:09:06;13.67;;;6.80;;
57401;SDS011;43226;51.110;6.998;2023-05-10T12:11:35;12.03;;;7.23;;
57401;SDS011;43226;51.110;6.998;2023-05-10T12:14:03;9.47;;;5.53;;
57401;SDS011;43226;51.110;6.998;2023-05-10T12:16:29;14.00;;;6.27;;
57401;SDS011;43226;51.110;6.998;2023-05-10T12:18:56;10.23;;;6.70;;
57401;SDS011;43226;51.110;6.998;2023-05-10T12:21:21;12.20;;;6.80;;
57401;SDS011;43226;51.110;6.998;2023-05-10T12:23:51;16.10;;;8.50;;
57401;SDS011;43226;51.110;6.998;2023-05-10T12:26:17;15.47;;;8.07;;
57401;SDS011;43226;51.110;6.998;2023-05-10T12:28:42;12.83;;;7.70;;
57401;SDS011;43226;51.110;6.998;2023-05-10T12:31:07;11.53;;;6.50;;
57401;SDS011;43226;51.110;6.998;2023-05-10T12:33:39;9.20;;;6.37;;
57401;SDS011;43226;51.110;6.998;2023-05-10T12:36:07;7.77;;;5.20;;
57401;SDS011;43226;51.110;6.998;2023-05-10T12:38:37;14.70;;;6.00;;
57401;SDS011;43226;51.110;6.998;2023-05-10T12:41:07;12.07;;;6.13;;
57401;SDS011;43226;51.110;6.998;2023-05-10T12:43:32;10.50;;;5.93;;
57401;SDS011;43226;51.110;6.998;2023-05-10T12:45:58;11.80;;;6.40;;
57401;SDS011;43226;51.110;6.998;2023-05-10T12:48:24;13.83;;;6.80;;
57401;SDS011;43226;51.110;6.998;2023-05-10T12:50:49;7.97;;;5.53;;
57401;SDS011;43226;51.110;6.998;2023-05-10T12:53:14;12.17;;;6.40;;
57401;SDS011;43226;51.110;6.998;2023-05-10T12:55:40;7.33;;;4.87;;
57401;SDS011;43226;51.110;6.998;2023-05-10T12:58:06;8.90;;;5.17;;
57401;SDS011;43226;51.110;6.998;2023-05-10T13:00:31;8.80;;;5.47;;
57401;SDS011;43226;51.110;6.998;2023-05-10T13:02:56;8.87;;;5.40;;
57401;SDS011;43226;51.110;6.998;2023-05-10T13:05:21;9.80;;;5.77;;
57401;SDS011;43226;51.110;6.998;2023-05-10T13:07:46;9.80;;;5.67;;
57401;SDS011;43226;51.110;6.998;2023-05-10T13:10:11;9.40;;;5.60;;
57401;SDS011;43226;51.110;6.998;2023-05-10T13:12:37;8.33;;;5.57;;
57401;SDS011;43226;51.110;6.998;2023-05-10T13:15:02;9.40;;;5.90;;
57401;SDS011;43226;51.110;6.998;2023-05-10T13:17:28;11.87;;;5.70;;
57401;SDS011;43226;51.110;6.998;2023-05-10T13:19:53;12.20;;;6.40;;
57401;SDS011;43226;51.110;6.998;2023-05-10T13:22:18;9.37;;;5.90;;
57401;SDS011;43226;51.110;6.998;2023-05-10T13:24:43;9.30;;;5.90;;
57401;SDS011;43226;51.110;6.998;2023-05-10T13:27:08;10.60;;;6.43;;
57401;SDS011;43226;51.110;6.998;2023-05-10T13:29:34;9.90;;;6.30;;
57401;SDS011;43226;51.110;6.998;2023-05-10T13:31:59;11.67;;;7.00;;
57401;SDS011;43226;51.110;6.998;2023-05-10T13:34:24;10.80;;;7.00;;
57401;SDS011;43226;51.110;6.998;2023-05-10T13:36:50;12.63;;;6.77;;
57401;SDS011;43226;51.110;6.998;2023-05-10T13:39:15;13.57;;;7.60;;
57401;SDS011;43226;51.110;6.998;2023-05-10T13:41:40;16.73;;;7.80;;
57401;SDS011;43226;51.110;6.998;2023-05-10T13:44:06;13.77;;;7.27;;
57401;SDS011;43226;51.110;6.998;2023-05-10T13:46:31;12.87;;;8.00;;
57401;SDS011;43226;51.110;6.998;2023-05-10T13:48:56;13.80;;;7.93;;
57401;SDS011;43226;51.110;6.998;2023-05-10T13:51:22;13.47;;;8.17;;
57401;SDS011;43226;51.110;6.998;2023-05-10T13:53:47;15.87;;;8.87;;
57401;SDS011;43226;51.110;6.998;2023-05-10T13:56:12;15.23;;;8.73;;
57401;SDS011;43226;51.110;6.998;2023-05-10T13:58:38;16.50;;;9.17;;
57401;SDS011;43226;51.110;6.998;2023-05-10T14:01:03;18.63;;;10.23;;
57401;SDS011;43226;51.110;6.998;2023-05-10T14:03:29;13.23;;;8.30;;
57401;SDS011;43226;51.110;6.998;2023-05-10T14:05:55;18.37;;;9.37;;
57401;SDS011;43226;51.110;6.998;2023-05-10T14:08:20;20.10;;;11.00;;
57401;SDS011;43226;51.110;6.998;2023-05-10T14:10:45;18.83;;;9.87;;
57401;SDS011;43226;51.110;6.998;2023-05-10T14:13:11;14.13;;;9.00;;
57401;SDS011;43226;51.110;6.998;2023-05-10T14:15:37;16.07;;;10.00;;
57401;SDS011;43226;51.110;6.998;2023-05-10T14:18:02;18.90;;;10.47;;
57401;SDS011;43226;51.110;6.998;2023-05-10T14:20:27;16.13;;;9.83;;
57401;SDS011;43226;51.110;6.998;2023-05-10T14:22:52;18.93;;;9.87;;
57401;SDS011;43226;51.110;6.998;2023-05-10T14:25:18;14.23;;;9.30;;
57401;SDS011;43226;51.110;6.998;2023-05-10T14:27:43;14.10;;;8.00;;
57401;SDS011;43226;51.110;6.998;2023-05-10T14:30:08;12.73;;;7.67;;
57401;SDS011;43226;51.110;6.998;2023-05-10T14:32:34;15.43;;;9.63;;
57401;SDS011;43226;51.110;6.998;2023-05-10T14:35:02;14.60;;;7.93;;
57401;SDS011;43226;51.110;6.998;2023-05-10T14:37:27;12.70;;;7.13;;
57401;SDS011;43226;51.110;6.998;2023-05-10T14:39:53;12.97;;;8.27;;
57401;SDS011;43226;51.110;6.998;2023-05-10T14:42:18;12.60;;;7.60;;
57401;SDS011;43226;51.110;6.998;2023-05-10T14:44:44;11.70;;;7.03;;
57401;SDS011;43226;51.110;6.998;2023-05-10T14:47:09;15.03;;;7.00;;
57401;SDS011;43226;51.110;6.998;2023-05-10T14:49:34;10.93;;;7.33;;
57401;SDS011;43226;51.110;6.998;2023-05-10T14:51:59;12.83;;;7.47;;
57401;SDS011;43226;51.110;6.998;2023-05-10T14:54:24;9.83;;;6.70;;
57401;SDS011;43226;51.110;6.998;2023-05-10T14:56:55;7.97;;;5.40;;
57401;SDS011;43226;51.110;6.998;2023-05-10T14:59:21;8.20;;;5.63;;
57401;SDS011;43226;51.110;6.998;2023-05-10T15:01:46;13.00;;;6.50;;
57401;SDS011;43226;51.110;6.998;2023-05-10T15:04:12;8.00;;;5.30;;
57401;SDS011;43226;51.110;6.998;2023-05-10T15:06:38;7.87;;;5.00;;
57401;SDS011;43226;51.110;6.998;2023-05-10T15:09:03;8.33;;;4.00;;